Rupert, WV (25984)

7:39 AM EST on December 28, 2014 (GMT -0500)
KWVALDER3 | Change Station
CLOSE
Current Station
Personal Weather Station
Location: Blue Sulphur Springs, WV
Elevation: 1719 ft
Nearby Weather Stations

Elev 1719 ft 37.83 °N, 80.64 °W | Updated 13 seconds ago

Rain
Rain
44.3 °F
Feels Like 44 °F
N
0.8
Wind Variable Wind from SSW
Gusts 0.9 mph

Today
High -- | Low -- °F
--% Chance of Precip.
Yesterday
High -- | Low -- °F
Precip. -- in
7:37 AM 5:11 PM
Waxing Crescent, 47% visible
Pressure 30.02 in
Visibility 10.0 miles
Clouds Overcast 1400 ft
Windchill 44 °F
Dew Point 42 °F
Humidity 90%
Rainfall 0.00 in
Snow Depth Not available.
UV 0 out of 12
Pollen .10 out of 12
Air Quality Not available.
Flu Activity Not available.
METAR KLWB 281215Z AUTO 19003KT 10SM OVC014 09/05 A3002 RMK AO2 T00900048

More Conditions Fewer Conditions

Pressure 30.02 in
Visibility 10.0 miles
Clouds Overcast 1400 ft
Windchill 44 °F
Dew Point 42 °F
Humidity 90%
Rainfall 0.00 in
Snow Depth Not available.
UV 0 out of 12
Pollen .10 out of 12
Air Quality Not available.
Flu Activity Not available.
METAR KLWB 281215Z AUTO 19003KT 10SM OVC014 09/05 A3002 RMK AO2 T00900048

More Conditions Fewer Conditions

10-Day Weather Forecast

Almanac

Astronomy

Dec. 28, 2014 Rise Set
Actual Time
Civil Twilight
Nautical Twilight
Astronomical Twilight
Moon
Length of Visible Light
Length of Day
Tomorrow will be .
, % of the Moon is Illuminated

Today's Extremes

State Highs State Lows

Community

WunderPhotos

Upload Photos

1,781,243 photos uploaded!

WunderBlogs® & News

Nearby

Air Quality

  Air Quality AQ Index Pollutant
Not available.

Snow Depth

Station Depth Elevation

Earthquake Activity

City Distance Mag. Time & Date
Minimum magnitude displayed is 2.5.

Coastal Water Temperatures

Place Temperature

Nearby Weather Stations